createdAt,value
2019-05-01T00:01:50.955Z,37.48
2019-05-01T00:04:57.833Z,16.52
2019-05-01T00:07:51.927Z,13.90
2019-05-01T00:10:44.712Z,18.40
2019-05-01T00:13:37.511Z,12.53
2019-05-01T00:16:31.338Z,14.70
2019-05-01T00:19:24.136Z,15.00
2019-05-01T00:22:17.965Z,15.63
2019-05-01T00:25:10.760Z,20.62
2019-05-01T00:28:03.565Z,14.85
2019-05-01T00:30:56.621Z,13.10
2019-05-01T00:33:49.675Z,16.12
2019-05-01T00:36:43.245Z,32.17
2019-05-01T00:39:36.040Z,12.10
2019-05-01T00:42:28.847Z,15.25
2019-05-01T00:45:21.900Z,15.32
2019-05-01T00:48:14.696Z,14.20
2019-05-01T00:51:07.753Z,17.20
2019-05-01T00:54:00.808Z,20.43
2019-05-01T00:57:12.041Z,17.95
2019-05-01T01:00:16.107Z,35.30
2019-05-01T01:03:10.186Z,40.12
2019-05-01T01:06:04.009Z,16.37
2019-05-01T01:08:56.810Z,24.12
2019-05-01T01:11:49.868Z,17.20
2019-05-01T01:14:42.669Z,19.40
2019-05-01T01:17:35.466Z,25.88
2019-05-01T01:20:28.523Z,18.73
2019-05-01T01:23:22.088Z,15.72
2019-05-01T01:26:15.147Z,22.22
2019-05-01T01:29:08.970Z,20.65
2019-05-01T01:32:02.283Z,19.85
2019-05-01T01:34:55.083Z,20.92
2019-05-01T01:37:48.138Z,25.57
2019-05-01T01:40:40.937Z,21.50
2019-05-01T01:43:43.465Z,23.70
2019-05-01T01:46:36.782Z,26.57
2019-05-01T01:49:29.841Z,23.62
2019-05-01T01:52:22.892Z,33.85
2019-05-01T01:55:15.688Z,24.82
2019-05-01T01:58:20.014Z,23.35
2019-05-01T02:01:24.074Z,24.77
2019-05-01T02:04:29.417Z,33.92
2019-05-01T02:07:33.737Z,37.17
2019-05-01T02:10:23.567Z,24.27
2019-05-01T02:13:16.266Z,22.50
2019-05-01T02:16:09.064Z,38.30
2019-05-01T02:19:02.124Z,23.40
2019-05-01T02:21:55.178Z,22.35
2019-05-01T02:24:48.490Z,22.32
2019-05-01T02:27:51.020Z,44.00
2019-05-01T02:30:43.815Z,20.70
2019-05-01T02:33:37.902Z,20.72
2019-05-01T02:36:30.697Z,26.27
2019-05-01T02:39:23.498Z,22.93
2019-05-01T02:42:16.552Z,19.55
2019-05-01T02:45:10.378Z,24.57
2019-05-01T02:48:10.870Z,33.48
2019-05-01T02:51:03.912Z,22.95
2019-05-01T02:53:57.229Z,20.10
2019-05-01T02:56:55.149Z,22.07
2019-05-01T02:59:55.884Z,21.35
2019-05-01T03:02:49.962Z,27.37
2019-05-01T03:05:43.019Z,21.23
2019-05-01T03:08:36.337Z,22.42
2019-05-01T03:11:29.387Z,22.37
2019-05-01T03:14:22.441Z,22.50
2019-05-01T03:17:12.718Z,23.65
2019-05-01T03:20:17.260Z,26.10
2019-05-01T03:23:17.738Z,20.45
2019-05-01T03:26:11.565Z,21.40
2019-05-01T03:29:04.871Z,20.50
2019-05-01T03:32:15.893Z,42.73
2019-05-01T03:34:52.782Z,21.93
2019-05-01T03:37:44.045Z,42.03
2019-05-01T03:40:36.842Z,19.57
2019-05-01T03:43:29.897Z,24.67
2019-05-01T03:46:22.953Z,18.55
2019-05-01T03:52:21.097Z,19.62
2019-05-01T03:55:10.058Z,29.00
2019-05-01T03:58:03.123Z,15.80
2019-05-01T04:01:07.433Z,17.65
2019-05-01T04:04:03.319Z,53.35
2019-05-01T04:06:56.105Z,50.60
2019-05-01T04:09:48.918Z,40.38
2019-05-01T04:12:41.706Z,58.65
2019-05-01T04:15:35.786Z,61.90
2019-05-01T04:18:28.841Z,52.20
2019-05-01T04:21:21.900Z,49.08
2019-05-01T04:24:15.731Z,21.93
2019-05-01T04:27:09.038Z,15.95
2019-05-01T04:30:09.258Z,16.40
2019-05-01T04:33:02.320Z,15.15
2019-05-01T04:36:15.335Z,18.02
2019-05-01T04:39:10.706Z,15.03
2019-05-01T04:42:03.501Z,25.20
2019-05-01T04:44:56.298Z,47.75
2019-05-01T04:47:49.353Z,22.77
2019-05-01T04:50:43.177Z,19.82
2019-05-01T04:53:36.240Z,22.82
2019-05-01T04:56:29.287Z,23.55
2019-05-01T04:59:22.095Z,20.08
2019-05-01T05:02:16.439Z,36.77
2019-05-01T05:05:09.235Z,57.13
2019-05-01T05:08:02.536Z,28.98
2019-05-01T05:10:55.337Z,23.02
2019-05-01T05:13:59.400Z,20.12
2019-05-01T05:17:05.264Z,22.85
2019-05-01T05:19:58.317Z,20.25
2019-05-01T05:22:52.136Z,26.82
2019-05-01T05:25:45.706Z,28.40
2019-05-01T05:28:46.189Z,29.65
2019-05-01T05:31:39.243Z,29.67
2019-05-01T05:34:32.809Z,38.23
2019-05-01T05:37:29.197Z,45.10
2019-05-01T05:40:22.505Z,32.83
2019-05-01T05:43:15.306Z,31.27
2019-05-01T05:46:08.194Z,31.62
2019-05-01T05:49:01.161Z,34.15
2019-05-01T05:52:07.018Z,32.48
2019-05-01T05:55:10.313Z,47.55
2019-05-01T05:58:23.598Z,30.68
2019-05-01T06:01:26.633Z,38.17
2019-05-01T06:04:31.211Z,33.55
2019-05-01T06:07:42.186Z,51.15
2019-05-01T06:10:41.131Z,40.45
2019-05-01T06:13:38.794Z,35.98
2019-05-01T06:16:40.159Z,33.18
2019-05-01T06:19:41.293Z,33.78
2019-05-01T06:22:56.619Z,57.27
2019-05-01T06:25:54.109Z,35.92
2019-05-01T06:28:47.083Z,33.20
2019-05-01T06:31:40.137Z,35.28
2019-05-01T06:34:33.454Z,33.92
2019-05-01T06:37:26.509Z,38.42
2019-05-01T06:40:22.462Z,35.95
2019-05-01T06:43:12.363Z,38.67
2019-05-01T06:46:08.748Z,54.00
2019-05-01T06:49:03.338Z,56.70
2019-05-01T06:52:01.769Z,37.73
2019-05-01T06:54:54.826Z,34.45
2019-05-01T06:57:48.397Z,58.42
2019-05-01T07:00:43.080Z,68.12
2019-05-01T07:03:34.266Z,43.52
2019-05-01T07:06:31.081Z,35.00
2019-05-01T07:09:27.754Z,61.65
2019-05-01T07:12:18.547Z,71.60
2019-05-01T07:15:11.949Z,34.10
2019-05-01T07:18:06.954Z,33.92
2019-05-01T07:21:04.635Z,34.53
2019-05-01T07:23:57.673Z,60.45
2019-05-01T07:26:59.866Z,31.75
2019-05-01T07:29:53.258Z,75.35
2019-05-01T07:32:46.317Z,67.40
2019-05-01T07:35:40.138Z,60.90
2019-05-01T07:38:38.505Z,34.60
2019-05-01T07:41:26.760Z,43.13
2019-05-01T07:44:33.833Z,44.05
2019-05-01T07:47:39.754Z,39.23
2019-05-01T07:50:33.080Z,43.95
2019-05-01T07:53:28.329Z,45.65
2019-05-01T07:56:28.259Z,47.17
2019-05-01T07:59:22.740Z,42.15
2019-05-01T08:02:20.650Z,67.70
2019-05-01T08:05:11.718Z,49.08
2019-05-01T08:08:07.941Z,47.43
2019-05-01T08:10:59.894Z,40.15
2019-05-01T08:13:49.547Z,42.65
2019-05-01T08:16:45.932Z,40.50
2019-05-01T08:19:42.314Z,43.13
2019-05-01T08:22:39.123Z,46.53
2019-05-01T08:25:35.340Z,61.55
2019-05-01T08:28:39.913Z,48.63
2019-05-01T08:31:43.722Z,39.53
2019-05-01T08:34:48.424Z,46.18
2019-05-01T08:37:32.143Z,45.92
2019-05-01T08:40:24.938Z,46.58
2019-05-01T08:43:21.839Z,46.58
2019-05-01T08:46:25.128Z,65.75
2019-05-01T08:49:42.253Z,62.55
2019-05-01T08:52:33.003Z,45.08
2019-05-01T08:55:25.804Z,44.33
2019-05-01T08:58:18.860Z,52.30
2019-05-01T09:01:15.091Z,51.70
2019-05-01T09:04:12.648Z,46.02
2019-05-01T09:07:05.712Z,42.15
2019-05-01T09:09:58.779Z,43.33
2019-05-01T09:12:52.030Z,69.47
2019-05-01T09:15:56.138Z,56.53
2019-05-01T09:18:49.197Z,45.65
2019-05-01T09:21:39.513Z,50.25
2019-05-01T09:24:31.471Z,40.23
2019-05-01T09:27:31.695Z,44.85
2019-05-01T09:30:28.817Z,47.38
2019-05-01T09:33:21.131Z,43.50
2019-05-01T09:36:14.446Z,46.60
2019-05-01T09:39:07.248Z,46.15
2019-05-01T09:42:09.004Z,50.85
2019-05-01T09:45:02.063Z,46.15
2019-05-01T09:47:55.116Z,74.32
2019-05-01T09:50:48.172Z,52.55
2019-05-01T09:53:46.089Z,46.45
2019-05-01T09:56:47.604Z,58.25
2019-05-01T09:59:40.922Z,56.40
2019-05-01T10:02:37.573Z,47.25
2019-05-01T10:05:28.904Z,70.37
2019-05-01T10:08:20.331Z,74.27
2019-05-01T10:11:07.012Z,50.28
2019-05-01T10:13:59.798Z,33.78
2019-05-01T10:16:52.587Z,46.75
2019-05-01T10:19:45.385Z,43.75
2019-05-01T10:22:38.730Z,48.52
2019-05-01T10:25:27.921Z,60.78
2019-05-01T10:28:23.018Z,51.05
2019-05-01T10:31:28.888Z,37.78
2019-05-01T10:34:30.890Z,41.30
2019-05-01T10:37:28.170Z,65.15
2019-05-01T10:40:22.215Z,37.40
2019-05-01T10:43:12.619Z,43.42
2019-05-01T10:46:05.673Z,37.80
2019-05-01T10:48:58.733Z,39.98
2019-05-01T10:51:51.786Z,74.32
2019-05-01T10:54:46.614Z,39.67
2019-05-01T10:57:40.632Z,41.13
2019-05-01T11:00:31.209Z,43.35
2019-05-01T11:03:24.267Z,63.85
2019-05-01T11:06:17.067Z,66.25
2019-05-01T11:09:10.121Z,34.95
2019-05-01T11:12:02.922Z,54.05
2019-05-01T11:14:55.738Z,37.78
2019-05-01T11:17:48.526Z,67.15
2019-05-01T11:20:42.345Z,38.05
2019-05-01T11:23:35.149Z,53.20
2019-05-01T11:26:28.202Z,38.63
2019-05-01T11:29:21.257Z,50.45
2019-05-01T11:32:17.014Z,66.92
2019-05-01T11:35:21.194Z,58.85
2019-05-01T11:38:24.235Z,46.40
2019-05-01T11:41:20.664Z,57.62
2019-05-01T11:44:13.673Z,55.30
2019-05-01T11:47:06.730Z,61.68
2019-05-01T11:50:00.557Z,45.12
2019-05-01T11:52:49.721Z,43.58
2019-05-01T11:55:42.824Z,48.23
2019-05-01T11:58:35.623Z,43.98
2019-05-01T12:01:28.430Z,28.75
2019-05-01T12:04:21.245Z,58.48
2019-05-01T12:07:14.029Z,49.55
2019-05-01T12:10:07.082Z,39.08
2019-05-01T12:12:59.885Z,50.43
2019-05-01T12:15:52.940Z,22.17
2019-05-01T12:18:45.736Z,30.88
2019-05-01T12:21:38.794Z,39.35
2019-05-01T12:24:31.850Z,28.62
2019-05-01T12:27:24.650Z,23.67
2019-05-01T12:30:18.219Z,29.18
2019-05-01T12:33:12.047Z,43.48
2019-05-01T12:36:05.353Z,39.58
2019-05-01T12:38:58.668Z,34.08
2019-05-01T12:41:55.048Z,30.08
2019-05-01T12:44:48.397Z,25.17
2019-05-01T12:47:50.130Z,24.02
2019-05-01T12:50:44.202Z,37.60
2019-05-01T12:53:48.522Z,40.95
2019-05-01T12:56:50.034Z,24.25
2019-05-01T12:59:43.083Z,38.00
2019-05-01T13:02:36.139Z,27.90
2019-05-01T13:05:29.193Z,31.52
2019-05-01T13:08:21.994Z,48.70
2019-05-01T13:11:15.051Z,48.15
2019-05-01T13:14:08.365Z,42.08
2019-05-01T13:17:01.422Z,45.20
2019-05-01T13:19:54.474Z,40.75
2019-05-01T13:22:47.277Z,30.72
2019-05-01T13:25:41.099Z,48.17
2019-05-01T13:28:43.888Z,25.95
2019-05-01T13:31:56.909Z,53.48
2019-05-01T13:34:50.218Z,18.73
2019-05-01T13:37:43.274Z,21.27
2019-05-01T13:40:37.613Z,41.40
2019-05-01T13:43:30.922Z,46.65
2019-05-01T13:46:23.982Z,32.83
2019-05-01T13:49:13.450Z,20.75
2019-05-01T13:52:06.508Z,28.07
2019-05-01T13:54:59.562Z,19.70
2019-05-01T13:57:52.364Z,21.80
2019-05-01T14:00:45.419Z,43.35
2019-05-01T14:03:38.219Z,24.32
2019-05-01T14:06:31.272Z,30.97
2019-05-01T14:09:25.355Z,32.58
2019-05-01T14:12:18.414Z,21.40
2019-05-01T14:15:11.465Z,29.05
2019-05-01T14:18:04.272Z,38.83
2019-05-01T14:21:17.296Z,23.73
2019-05-01T14:24:20.881Z,24.92
2019-05-01T14:27:13.896Z,29.45
2019-05-01T14:30:06.955Z,28.52
2019-05-01T14:33:08.204Z,44.38
2019-05-01T14:36:01.258Z,33.88
2019-05-01T14:39:07.883Z,25.90
2019-05-01T14:42:04.012Z,35.03
2019-05-01T14:44:57.324Z,46.02
2019-05-01T14:47:50.382Z,34.75
2019-05-01T14:50:43.432Z,39.95
2019-05-01T14:53:37.784Z,26.33
2019-05-01T14:56:30.839Z,29.27
2019-05-01T14:59:23.881Z,42.43
2019-05-01T15:02:17.199Z,30.02
2019-05-01T15:05:10.253Z,42.70
2019-05-01T15:08:03.827Z,32.70
2019-05-01T15:10:57.390Z,31.10
2019-05-01T15:14:19.627Z,43.48
2019-05-01T15:17:22.668Z,42.40
2019-05-01T15:20:18.285Z,32.10
2019-05-01T15:23:11.342Z,34.00
2019-05-01T15:26:04.397Z,31.70
2019-05-01T15:28:57.454Z,28.95
2019-05-01T15:31:50.512Z,44.70
2019-05-01T15:34:39.723Z,34.92
2019-05-01T15:37:35.216Z,41.55
2019-05-01T15:40:40.683Z,49.23
2019-05-01T15:43:41.675Z,38.38
2019-05-01T15:46:34.729Z,33.35
2019-05-01T15:49:27.530Z,32.93
2019-05-01T15:52:20.343Z,38.20
2019-05-01T15:55:13.390Z,37.73
2019-05-01T15:58:06.697Z,30.57
2019-05-01T16:00:59.754Z,28.73
2019-05-01T16:03:52.808Z,38.60
2019-05-01T16:06:45.887Z,30.70
2019-05-01T16:09:31.272Z,25.37
2019-05-01T16:12:39.662Z,35.00
2019-05-01T16:15:40.650Z,36.83
2019-05-01T16:18:41.129Z,29.25
2019-05-01T16:21:34.189Z,29.60
2019-05-01T16:24:27.242Z,29.87
2019-05-01T16:27:20.044Z,30.82
2019-05-01T16:30:13.102Z,30.43
2019-05-01T16:33:05.897Z,32.33
2019-05-01T16:35:58.953Z,35.25
2019-05-01T16:39:13.516Z,28.92
2019-05-01T16:42:06.827Z,34.55
2019-05-01T16:44:59.884Z,26.55
2019-05-01T16:47:53.194Z,36.38
2019-05-01T16:50:45.993Z,26.80
2019-05-01T16:53:39.048Z,25.10
2019-05-01T16:56:33.087Z,30.35
2019-05-01T16:59:25.161Z,37.45
2019-05-01T17:02:30.057Z,44.27
2019-05-01T17:05:44.563Z,28.57
2019-05-01T17:09:07.561Z,25.23
2019-05-01T17:12:00.618Z,32.85
2019-05-01T17:14:53.675Z,33.23
2019-05-01T17:17:46.479Z,33.78
2019-05-01T17:20:40.811Z,32.45
2019-05-01T17:23:29.770Z,45.38
2019-05-01T17:26:23.850Z,35.88
2019-05-01T17:29:18.954Z,34.13
2019-05-01T17:32:12.526Z,34.60
2019-05-01T17:35:06.660Z,36.53
2019-05-01T17:37:58.634Z,39.05
2019-05-01T17:40:53.436Z,43.02
2019-05-01T17:43:48.970Z,39.95
2019-05-01T17:46:41.944Z,42.93
2019-05-01T17:49:31.629Z,37.90
2019-05-01T17:52:25.706Z,32.88
2019-05-01T17:55:18.762Z,37.23
2019-05-01T17:58:19.500Z,36.33
2019-05-01T18:02:14.268Z,35.52
2019-05-01T18:05:07.568Z,40.55
2019-05-01T18:08:00.623Z,34.88
2019-05-01T18:10:53.932Z,33.33
2019-05-01T18:13:46.986Z,34.55
2019-05-01T18:16:40.047Z,32.45
2019-05-01T18:19:32.869Z,31.07
2019-05-01T18:22:38.986Z,29.15
2019-05-01T18:25:36.873Z,33.15
2019-05-01T18:28:53.237Z,33.08
2019-05-01T18:31:46.543Z,35.43
2019-05-01T18:34:39.600Z,34.25
2019-05-01T18:37:44.175Z,29.52
2019-05-01T18:40:43.627Z,28.65
2019-05-01T18:43:36.687Z,29.27
2019-05-01T18:46:29.995Z,34.95
2019-05-01T18:49:19.212Z,39.65
2019-05-01T18:52:12.269Z,32.00
2019-05-01T18:55:05.581Z,29.40
2019-05-01T18:58:00.176Z,29.55
2019-05-01T19:00:53.482Z,31.48
2019-05-01T19:03:47.561Z,40.80
2019-05-01T19:06:43.516Z,29.23
2019-05-01T19:09:36.486Z,28.70
2019-05-01T19:12:27.026Z,28.95
2019-05-01T19:15:16.380Z,40.08
2019-05-01T19:18:17.961Z,31.33
2019-05-01T19:21:07.314Z,33.38
2019-05-01T19:24:02.491Z,35.13
2019-05-01T19:26:54.056Z,29.90
2019-05-01T19:29:47.118Z,30.00
2019-05-01T19:32:40.428Z,26.50
2019-05-01T19:35:34.326Z,27.15
2019-05-01T19:38:29.492Z,22.85
2019-05-01T19:41:19.849Z,20.32
2019-05-01T19:44:13.916Z,26.30
2019-05-01T19:47:07.766Z,25.50
2019-05-01T19:50:06.476Z,26.33
2019-05-01T19:52:52.087Z,20.50
2019-05-01T19:55:46.737Z,29.05
2019-05-01T19:58:39.508Z,27.65
2019-05-01T20:01:38.197Z,21.60
2019-05-01T20:04:27.117Z,24.27
2019-05-01T20:07:19.757Z,24.20
2019-05-01T20:10:11.209Z,23.95
2019-05-01T20:13:07.024Z,27.05
2019-05-01T20:15:58.313Z,45.00
2019-05-01T20:18:51.374Z,38.63
2019-05-01T20:21:44.438Z,22.42
2019-05-01T20:24:39.952Z,23.30
2019-05-01T20:27:30.800Z,22.05
2019-05-01T20:30:20.012Z,30.57
2019-05-01T20:33:15.478Z,23.57
2019-05-01T20:36:07.172Z,28.07
2019-05-01T20:38:59.945Z,28.27
2019-05-01T20:41:53.000Z,26.23
2019-05-01T20:44:42.286Z,24.00
2019-05-01T20:47:35.810Z,25.70
2019-05-01T20:50:35.753Z,24.45
2019-05-01T20:53:28.810Z,19.62
2019-05-01T20:56:26.730Z,20.97
2019-05-01T20:59:19.784Z,23.35
2019-05-01T21:02:12.847Z,27.27
2019-05-01T21:05:15.370Z,27.52
2019-05-01T21:08:33.965Z,26.07
2019-05-01T21:11:25.289Z,24.85
2019-05-01T21:14:22.656Z,22.90
2019-05-01T21:17:13.690Z,33.73
2019-05-01T21:20:04.715Z,29.32
2019-05-01T21:22:57.771Z,35.05
2019-05-01T21:25:50.849Z,21.82
2019-05-01T21:28:44.879Z,24.43
2019-05-01T21:31:34.125Z,33.13
2019-05-01T21:34:26.667Z,26.25
2019-05-01T21:37:19.721Z,39.50
2019-05-01T21:40:08.936Z,30.27
2019-05-01T21:43:03.062Z,36.95
2019-05-01T21:45:56.073Z,29.00
2019-05-01T21:48:49.385Z,39.63
2019-05-01T21:51:46.089Z,30.10
2019-05-01T21:54:35.757Z,35.15
2019-05-01T21:57:32.259Z,32.15
2019-05-01T22:00:24.861Z,28.87
2019-05-01T22:03:11.339Z,29.02
2019-05-01T22:06:04.673Z,25.85
2019-05-01T22:09:10.612Z,27.15
2019-05-01T22:12:02.280Z,32.40
2019-05-01T22:15:11.058Z,27.25
2019-05-01T22:18:11.947Z,24.55
2019-05-01T22:21:09.103Z,34.33
2019-05-01T22:24:25.036Z,27.27
2019-05-01T22:27:26.445Z,47.55
2019-05-01T22:30:37.675Z,43.85
2019-05-01T22:33:30.478Z,28.38
2019-05-01T22:36:23.274Z,50.55
2019-05-01T22:39:16.073Z,33.02
2019-05-01T22:42:09.128Z,31.65
2019-05-01T22:45:02.185Z,28.55
2019-05-01T22:47:55.242Z,42.40
2019-05-01T22:50:48.298Z,59.27
2019-05-01T22:53:37.453Z,47.73
2019-05-01T22:56:30.314Z,34.85
2019-05-01T22:59:23.626Z,39.03
2019-05-01T23:02:24.218Z,32.30
2019-05-01T23:05:15.624Z,38.75
2019-05-01T23:08:08.683Z,38.55
2019-05-01T23:10:56.078Z,36.08
2019-05-01T23:13:49.162Z,33.83
2019-05-01T23:16:44.010Z,33.75
2019-05-01T23:19:36.818Z,41.83
2019-05-01T23:22:39.851Z,44.53
2019-05-01T23:25:36.578Z,52.35
2019-05-01T23:28:25.709Z,49.77
2019-05-01T23:31:18.509Z,46.68
2019-05-01T23:34:11.560Z,53.28
2019-05-01T23:37:04.619Z,43.17
2019-05-01T23:39:57.418Z,44.48
2019-05-01T23:42:53.659Z,73.95
2019-05-01T23:45:43.274Z,43.78
2019-05-01T23:48:36.328Z,46.95
2019-05-01T23:51:29.886Z,56.15
2019-05-01T23:54:22.188Z,46.60
2019-05-01T23:57:18.750Z,76.53
